createdAt,value
2022-08-08T00:01:06.482Z,36.32
2022-08-08T00:02:57.027Z,36.38
2022-08-08T00:04:56.178Z,36.48
2022-08-08T00:08:17.499Z,36.24
2022-08-08T00:10:17.451Z,36.78
2022-08-08T00:12:24.632Z,36.87
2022-08-08T00:14:48.710Z,36.96
2022-08-08T00:16:18.818Z,36.99
2022-08-08T00:18:18.891Z,37.04
2022-08-08T00:20:18.048Z,37.09
2022-08-08T00:22:18.110Z,37.15
2022-08-08T00:24:18.247Z,37.21
2022-08-08T00:26:26.292Z,37.25
2022-08-08T00:28:35.529Z,37.30
2022-08-08T00:30:19.588Z,37.35
2022-08-08T00:32:35.683Z,37.40
2022-08-08T00:34:20.296Z,37.45
2022-08-08T00:36:19.117Z,37.49
2022-08-08T00:38:31.817Z,37.52
2022-08-08T00:41:12.143Z,37.56
2022-08-08T00:42:34.621Z,37.59
2022-08-08T00:44:20.871Z,37.67
2022-08-08T00:46:19.586Z,37.68
2022-08-08T00:48:29.848Z,37.72
2022-08-08T00:50:20.809Z,37.77
2022-08-08T00:52:20.563Z,37.80
2022-08-08T00:54:19.965Z,37.83
2022-08-08T00:56:20.670Z,37.86
2022-08-08T00:58:20.563Z,37.91
2022-08-08T01:00:22.369Z,37.95
2022-08-08T01:03:53.959Z,38.03
2022-08-08T01:04:21.568Z,38.09
2022-08-08T01:06:27.181Z,38.15
2022-08-08T01:08:21.765Z,38.24
2022-08-08T01:10:21.934Z,38.28
2022-08-08T01:12:25.725Z,38.30
2022-08-08T01:14:53.577Z,38.36
2022-08-08T01:16:28.026Z,38.40
2022-08-08T01:18:50.587Z,38.48
2022-08-08T01:20:22.470Z,38.53
2022-08-08T01:22:23.618Z,38.58
2022-08-08T01:24:22.659Z,38.63
2022-08-08T01:26:24.139Z,38.67
2022-08-08T01:28:28.091Z,38.75
2022-08-08T01:30:22.953Z,38.81
2022-08-08T01:32:22.081Z,38.88
2022-08-08T01:34:22.208Z,38.92
2022-08-08T01:36:23.304Z,39.03
2022-08-08T01:38:22.391Z,39.09
2022-08-08T01:40:22.501Z,39.13
2022-08-08T01:42:36.547Z,39.22
2022-08-08T01:44:23.722Z,39.25
2022-08-08T01:46:22.866Z,39.30
2022-08-08T01:48:30.977Z,39.35
2022-08-08T01:50:26.848Z,39.38
2022-08-08T01:53:50.711Z,39.44
2022-08-08T01:55:26.746Z,39.49
2022-08-08T01:56:31.008Z,39.55
2022-08-08T01:58:38.165Z,39.60
2022-08-08T02:00:24.602Z,39.65
2022-08-08T02:02:34.875Z,39.72
2022-08-08T02:04:24.792Z,39.80
2022-08-08T02:06:33.097Z,39.87
2022-08-08T02:08:25.010Z,39.92
2022-08-08T02:10:29.834Z,39.98
2022-08-08T02:12:25.314Z,40.02
2022-08-08T02:14:24.330Z,40.07
2022-08-08T02:16:24.445Z,40.11
2022-08-08T02:18:24.629Z,40.15
2022-08-08T02:21:00.073Z,40.17
2022-08-08T02:22:28.380Z,40.21
2022-08-08T02:24:25.883Z,40.30
2022-08-08T02:26:24.982Z,40.33
2022-08-08T02:28:25.967Z,40.36
2022-08-08T02:30:26.164Z,40.43
2022-08-08T02:32:32.142Z,40.48
2022-08-08T02:34:27.486Z,40.57
2022-08-08T02:36:26.514Z,40.65
2022-08-08T02:38:30.025Z,40.70
2022-08-08T02:40:25.774Z,40.74
2022-08-08T02:42:36.232Z,40.83
2022-08-08T02:44:42.373Z,40.90
2022-08-08T02:46:27.042Z,40.95
2022-08-08T02:48:27.496Z,40.96
2022-08-08T02:50:26.285Z,41.01
2022-08-08T02:52:42.843Z,41.03
2022-08-08T02:54:27.920Z,41.07
2022-08-08T02:56:26.646Z,41.10
2022-08-08T02:58:26.917Z,41.15
2022-08-08T03:00:31.610Z,41.18
2022-08-08T03:02:30.241Z,41.24
2022-08-08T03:05:03.849Z,41.31
2022-08-08T03:06:34.790Z,41.40
2022-08-08T03:08:28.364Z,41.44
2022-08-08T03:10:32.806Z,41.49
2022-08-08T03:12:36.787Z,41.54
2022-08-08T03:15:59.350Z,41.60
2022-08-08T03:16:35.955Z,41.66
2022-08-08T03:18:31.348Z,41.72
2022-08-08T03:20:28.167Z,41.78
2022-08-08T03:22:38.563Z,41.88
2022-08-08T03:24:29.388Z,41.98
2022-08-08T03:26:30.651Z,42.04
2022-08-08T03:28:28.656Z,42.13
2022-08-08T03:30:28.770Z,42.23
2022-08-08T03:32:30.556Z,42.25
2022-08-08T03:34:28.989Z,42.29
2022-08-08T03:36:30.282Z,42.35
2022-08-08T03:38:53.874Z,42.40
2022-08-08T03:40:32.087Z,42.44
2022-08-08T03:42:30.822Z,42.49
2022-08-08T03:44:29.452Z,42.52
2022-08-08T03:46:30.808Z,42.56
2022-08-08T03:49:09.515Z,42.65
2022-08-08T03:50:30.774Z,42.74
2022-08-08T03:52:30.089Z,42.84
2022-08-08T03:54:40.633Z,42.85
2022-08-08T03:56:32.576Z,42.90
2022-08-08T03:58:37.507Z,42.96
2022-08-08T04:00:31.447Z,43.01
2022-08-08T04:02:36.609Z,43.05
2022-08-08T04:04:31.768Z,43.11
2022-08-08T04:06:30.916Z,43.12
2022-08-08T04:08:33.822Z,43.16
2022-08-08T04:10:32.136Z,43.20
2022-08-08T04:12:31.620Z,43.23
2022-08-08T04:14:35.517Z,43.30
2022-08-08T04:17:59.170Z,43.05
2022-08-08T04:19:48.969Z,43.54
2022-08-08T04:21:48.108Z,43.58
2022-08-08T04:24:12.173Z,43.64
2022-08-08T04:25:49.384Z,43.71
2022-08-08T04:28:10.575Z,43.73
2022-08-08T04:29:55.505Z,43.75
2022-08-08T04:31:58.862Z,43.79
2022-08-08T04:33:50.026Z,43.82
2022-08-08T04:35:50.975Z,43.79
2022-08-08T04:37:49.312Z,43.79
2022-08-08T04:40:06.735Z,43.85
2022-08-08T04:41:50.600Z,43.90
2022-08-08T04:43:54.203Z,43.94
2022-08-08T04:45:50.880Z,43.97
2022-08-08T04:47:49.902Z,44.03
2022-08-08T04:50:01.155Z,44.02
2022-08-08T04:51:57.390Z,44.05
2022-08-08T04:54:27.102Z,44.08
2022-08-08T04:55:56.021Z,44.13
2022-08-08T04:57:51.604Z,44.16
2022-08-08T04:59:50.713Z,44.17
2022-08-08T05:01:50.878Z,44.20
2022-08-08T05:04:08.454Z,44.25
2022-08-08T05:05:53.478Z,44.26
2022-08-08T05:07:51.223Z,44.32
2022-08-08T05:09:52.369Z,44.39
2022-08-08T05:11:56.603Z,44.41
2022-08-08T05:13:57.995Z,44.43
2022-08-08T05:16:52.825Z,44.45
2022-08-08T05:17:53.634Z,44.45
2022-08-08T05:20:12.329Z,44.46
2022-08-08T05:21:59.562Z,44.51
2022-08-08T05:24:03.033Z,44.53
2022-08-08T05:25:57.272Z,44.57
2022-08-08T05:27:54.866Z,44.60
2022-08-08T05:29:52.708Z,44.58
2022-08-08T05:32:03.895Z,44.61
2022-08-08T05:33:54.014Z,44.68
2022-08-08T05:35:53.222Z,44.67
2022-08-08T05:37:54.476Z,44.65
2022-08-08T05:39:53.406Z,44.65
2022-08-08T05:41:54.859Z,44.63
2022-08-08T05:44:03.635Z,44.63
2022-08-08T05:45:55.203Z,44.60
2022-08-08T05:48:00.039Z,44.60
2022-08-08T05:49:56.212Z,44.56
2022-08-08T05:51:54.243Z,44.54
2022-08-08T05:54:26.920Z,44.51
2022-08-08T05:56:10.272Z,44.55
2022-08-08T05:58:04.067Z,44.53
2022-08-08T06:00:01.114Z,44.51
2022-08-08T06:01:58.023Z,44.51
2022-08-08T06:03:55.687Z,44.55
2022-08-08T06:05:56.719Z,44.51
2022-08-08T06:08:00.198Z,44.48
2022-08-08T06:10:00.993Z,44.42
2022-08-08T06:11:56.551Z,44.35
2022-08-08T06:13:55.663Z,44.25
2022-08-08T06:15:55.815Z,44.18
2022-08-08T06:18:18.415Z,44.11
2022-08-08T06:19:57.042Z,44.06
2022-08-08T06:21:57.607Z,43.94
2022-08-08T06:24:03.311Z,43.62
2022-08-08T06:26:43.673Z,42.71
2022-08-08T06:27:57.456Z,41.85
2022-08-08T06:30:01.119Z,41.13
2022-08-08T06:32:10.056Z,40.30
2022-08-08T06:34:25.822Z,39.22
2022-08-08T06:36:06.335Z,38.23
2022-08-08T06:37:58.087Z,37.24
2022-08-08T06:39:57.356Z,36.36
2022-08-08T06:41:57.360Z,35.77
2022-08-08T06:43:57.668Z,35.25
2022-08-08T06:45:57.602Z,35.17
2022-08-08T06:48:01.131Z,35.07
2022-08-08T06:49:57.782Z,35.11
2022-08-08T06:51:58.242Z,35.16
2022-08-08T06:54:00.802Z,35.09
2022-08-08T06:56:02.853Z,34.89
2022-08-08T06:58:00.726Z,34.61
2022-08-08T07:00:10.712Z,34.39
2022-08-08T07:02:27.548Z,34.15
2022-08-08T07:04:36.749Z,33.50
2022-08-08T07:06:02.203Z,33.06
2022-08-08T07:07:58.890Z,32.86
2022-08-08T07:09:59.573Z,32.76
2022-08-08T07:11:59.158Z,32.36
2022-08-08T07:14:00.794Z,32.03
2022-08-08T07:16:05.377Z,31.87
2022-08-08T07:18:02.051Z,31.42
2022-08-08T07:20:00.586Z,30.86
2022-08-08T07:22:05.536Z,30.41
2022-08-08T07:24:02.827Z,30.05
2022-08-08T07:25:59.927Z,29.94
2022-08-08T07:28:02.459Z,29.71
2022-08-08T07:30:05.978Z,29.65
2022-08-08T07:32:01.725Z,29.51
2022-08-08T07:34:00.417Z,29.47
2022-08-08T07:36:00.546Z,29.48
2022-08-08T07:38:10.517Z,29.38
2022-08-08T07:40:02.680Z,29.77
2022-08-08T07:42:03.981Z,29.97
2022-08-08T07:44:01.744Z,29.90
2022-08-08T07:46:18.081Z,29.84
2022-08-08T07:48:02.240Z,29.33
2022-08-08T07:50:01.360Z,29.08
2022-08-08T07:52:01.495Z,29.01
2022-08-08T07:54:03.537Z,28.89
2022-08-08T07:56:01.753Z,28.55
2022-08-08T07:58:01.868Z,28.47
2022-08-08T08:00:01.987Z,28.01
2022-08-08T08:02:34.999Z,27.64
2022-08-08T08:04:03.281Z,27.45
2022-08-08T08:06:02.405Z,27.38
2022-08-08T08:08:02.489Z,27.38
2022-08-08T08:10:02.733Z,27.14
2022-08-08T08:12:02.790Z,26.98
2022-08-08T08:14:08.328Z,26.89
2022-08-08T08:16:04.375Z,26.68
2022-08-08T08:18:03.174Z,26.38
2022-08-08T08:20:03.299Z,26.08
2022-08-08T08:22:07.771Z,25.78
2022-08-08T08:24:03.789Z,25.72
2022-08-08T08:26:03.692Z,25.57
2022-08-08T08:28:03.865Z,25.25
2022-08-08T08:30:03.976Z,24.94
2022-08-08T08:32:05.678Z,24.78
2022-08-08T08:34:04.224Z,24.58
2022-08-08T08:36:19.524Z,24.57
2022-08-08T08:38:17.166Z,24.27
2022-08-08T08:40:05.683Z,24.05
2022-08-08T08:42:04.823Z,23.77
2022-08-08T08:44:14.018Z,23.67
2022-08-08T08:46:06.016Z,23.41
2022-08-08T08:48:05.117Z,23.44
2022-08-08T08:50:10.685Z,23.34
2022-08-08T08:52:06.345Z,23.25
2022-08-08T08:54:05.467Z,23.10
2022-08-08T08:56:05.672Z,22.96
2022-08-08T08:58:05.763Z,22.89
2022-08-08T09:00:15.234Z,22.77
2022-08-08T09:02:07.026Z,22.66
2022-08-08T09:04:06.081Z,22.67
2022-08-08T09:06:19.307Z,22.49
2022-08-08T09:08:12.832Z,22.52
2022-08-08T09:10:11.094Z,22.23
2022-08-08T09:12:08.570Z,22.23
2022-08-08T09:14:06.735Z,22.01
2022-08-08T09:16:06.807Z,21.86
2022-08-08T09:18:06.949Z,21.87
2022-08-08T09:21:58.691Z,21.58
2022-08-08T09:22:08.223Z,21.15
2022-08-08T09:24:07.815Z,21.19
2022-08-08T09:26:12.434Z,20.91
2022-08-08T09:28:07.582Z,20.85
2022-08-08T09:30:07.704Z,20.73
2022-08-08T09:32:11.943Z,20.46
2022-08-08T09:34:31.566Z,20.23
2022-08-08T09:36:09.050Z,20.01
2022-08-08T09:38:17.517Z,19.60
2022-08-08T09:40:11.216Z,19.39
2022-08-08T09:42:19.967Z,18.99
2022-08-08T09:44:13.110Z,18.58
2022-08-08T09:46:11.278Z,18.02
2022-08-08T09:48:21.053Z,17.69
2022-08-08T09:50:13.675Z,17.27
2022-08-08T09:52:16.247Z,17.14
2022-08-08T09:54:14.113Z,16.92
2022-08-08T09:56:12.305Z,16.59
2022-08-08T09:58:09.779Z,16.42
2022-08-08T10:00:32.934Z,16.21
2022-08-08T10:02:14.464Z,16.11
2022-08-08T10:04:09.901Z,16.02
2022-08-08T10:06:10.001Z,15.85
2022-08-08T10:08:10.180Z,15.68
2022-08-08T10:10:10.192Z,15.49
2022-08-08T10:12:27.930Z,15.53
2022-08-08T10:14:28.084Z,15.36
2022-08-08T10:16:11.749Z,15.22
2022-08-08T10:18:17.054Z,15.10
2022-08-08T10:20:17.151Z,14.90
2022-08-08T10:22:10.829Z,14.65
2022-08-08T10:24:28.276Z,14.60
2022-08-08T10:26:26.063Z,14.38
2022-08-08T10:28:15.177Z,14.17
2022-08-08T10:30:23.590Z,14.05
2022-08-08T10:32:12.412Z,13.95
2022-08-08T10:34:20.209Z,13.83
2022-08-08T10:36:20.796Z,13.75
2022-08-08T10:38:13.744Z,13.62
2022-08-08T10:40:11.999Z,13.57
2022-08-08T10:42:15.423Z,13.49
2022-08-08T10:44:12.415Z,13.46
2022-08-08T10:46:29.671Z,13.38
2022-08-08T10:48:13.432Z,13.42
2022-08-08T10:50:15.311Z,13.23
2022-08-08T10:52:12.631Z,13.27
2022-08-08T10:54:12.746Z,13.21
2022-08-08T10:56:15.910Z,13.16
2022-08-08T10:58:13.990Z,13.24
2022-08-08T11:00:13.110Z,13.34
2022-08-08T11:02:13.360Z,13.26
2022-08-08T11:04:13.431Z,13.42
2022-08-08T11:06:14.040Z,13.30
2022-08-08T11:08:37.971Z,13.37
2022-08-08T11:10:19.871Z,13.38
2022-08-08T11:12:14.923Z,13.41
2022-08-08T11:14:16.319Z,13.37
2022-08-08T11:16:32.355Z,12.98
2022-08-08T11:18:15.262Z,13.28
2022-08-08T11:20:14.493Z,13.27
2022-08-08T11:22:14.601Z,13.31
2022-08-08T11:24:14.700Z,13.34
2022-08-08T11:26:19.190Z,13.32
2022-08-08T11:28:18.601Z,13.42
2022-08-08T11:30:24.047Z,13.45
2022-08-08T11:32:16.339Z,13.41
2022-08-08T11:34:24.423Z,13.43
2022-08-08T11:36:16.616Z,13.41
2022-08-08T11:38:35.633Z,13.42
2022-08-08T11:40:16.959Z,13.55
2022-08-08T11:42:16.993Z,13.40
2022-08-08T11:44:16.425Z,13.57
2022-08-08T11:46:18.308Z,13.56
2022-08-08T11:48:20.311Z,13.55
2022-08-08T11:50:16.593Z,13.82
2022-08-08T11:52:18.492Z,13.95
2022-08-08T11:54:31.552Z,13.88
2022-08-08T11:56:18.019Z,13.92
2022-08-08T11:58:17.228Z,13.90
2022-08-08T12:00:17.298Z,13.88
2022-08-08T12:02:31.659Z,14.12
2022-08-08T12:04:18.612Z,14.19
2022-08-08T12:06:17.716Z,14.30
2022-08-08T12:08:17.824Z,14.29
2022-08-08T12:10:18.062Z,14.37
2022-08-08T12:12:22.461Z,14.25
2022-08-08T12:14:19.246Z,14.25
2022-08-08T12:16:18.347Z,14.27
2022-08-08T12:18:21.629Z,14.21
2022-08-08T12:20:19.694Z,14.21
2022-08-08T12:22:33.481Z,14.21
2022-08-08T12:24:19.879Z,14.35
2022-08-08T12:26:27.492Z,14.08
2022-08-08T12:28:20.049Z,14.58
2022-08-08T12:30:24.929Z,14.71
2022-08-08T12:32:21.010Z,14.67
2022-08-08T12:34:20.442Z,14.77
2022-08-08T12:36:20.656Z,14.89
2022-08-08T12:38:19.753Z,15.16
2022-08-08T12:40:22.910Z,15.13
2022-08-08T12:42:21.148Z,15.31
2022-08-08T12:44:32.268Z,15.57
2022-08-08T12:46:26.147Z,15.69
2022-08-08T12:48:37.243Z,15.75
2022-08-08T12:50:21.796Z,15.83
2022-08-08T12:52:28.762Z,15.83
2022-08-08T12:54:24.174Z,15.97
2022-08-08T12:56:24.172Z,15.98
2022-08-08T12:58:21.105Z,16.11
2022-08-08T13:00:22.172Z,16.06
2022-08-08T13:02:22.197Z,16.11
2022-08-08T13:04:24.433Z,16.23
2022-08-08T13:06:21.381Z,16.18
2022-08-08T13:08:22.893Z,16.35
2022-08-08T13:10:28.227Z,16.46
2022-08-08T13:12:37.141Z,16.57
2022-08-08T13:14:22.889Z,16.55
2022-08-08T13:16:25.209Z,16.53
2022-08-08T13:18:27.370Z,16.57
2022-08-08T13:20:23.258Z,16.69
2022-08-08T13:22:24.571Z,16.75
2022-08-08T13:24:38.514Z,16.79
2022-08-08T13:26:24.798Z,16.81
2022-08-08T13:28:22.669Z,16.85
2022-08-08T13:30:26.315Z,16.94
2022-08-08T13:32:28.608Z,17.05
2022-08-08T13:34:33.324Z,17.14
2022-08-08T13:36:26.223Z,17.20
2022-08-08T13:38:23.229Z,17.31
2022-08-08T13:40:27.272Z,17.39
2022-08-08T13:42:23.478Z,17.41
2022-08-08T13:44:23.549Z,17.39
2022-08-08T13:46:26.533Z,17.30
2022-08-08T13:48:25.845Z,17.36
2022-08-08T13:50:36.437Z,17.53
2022-08-08T13:52:37.615Z,17.60
2022-08-08T13:54:29.460Z,17.69
2022-08-08T13:56:25.344Z,17.78
2022-08-08T13:58:24.393Z,17.90
2022-08-08T14:00:24.523Z,18.01
2022-08-08T14:02:33.325Z,18.06
2022-08-08T14:04:25.950Z,18.15
2022-08-08T14:06:34.048Z,18.17
2022-08-08T14:08:29.754Z,18.20
2022-08-08T14:10:33.557Z,18.25
2022-08-08T14:12:26.286Z,18.33
2022-08-08T14:14:26.317Z,18.35
2022-08-08T14:16:25.549Z,18.36
2022-08-08T14:18:36.331Z,18.39
2022-08-08T14:20:58.059Z,18.44
2022-08-08T14:22:26.856Z,18.46
2022-08-08T14:24:26.052Z,18.51
2022-08-08T14:26:28.221Z,18.54
2022-08-08T14:28:29.259Z,18.53
2022-08-08T14:30:26.361Z,18.62
2022-08-08T14:32:29.981Z,18.66
2022-08-08T14:34:27.760Z,18.74
2022-08-08T14:36:26.674Z,18.84
2022-08-08T14:38:34.177Z,18.87
2022-08-08T14:40:28.041Z,18.97
2022-08-08T14:42:27.085Z,19.01
2022-08-08T14:44:30.361Z,19.06
2022-08-08T14:46:32.669Z,19.09
2022-08-08T14:48:38.760Z,19.09
2022-08-08T14:50:38.020Z,19.09
2022-08-08T14:52:28.710Z,19.09
2022-08-08T14:54:29.543Z,19.07
2022-08-08T14:56:27.855Z,19.13
2022-08-08T14:58:27.936Z,19.16
2022-08-08T15:00:28.070Z,19.19
2022-08-08T15:02:30.994Z,19.25
2022-08-08T15:04:28.257Z,19.26
2022-08-08T15:06:28.418Z,19.30
2022-08-08T15:08:34.370Z,19.27
2022-08-08T15:10:29.680Z,19.33
2022-08-08T15:12:28.822Z,19.33
2022-08-08T15:14:28.930Z,19.36
2022-08-08T15:16:29.085Z,19.40
2022-08-08T15:18:29.837Z,19.48
2022-08-08T15:20:29.312Z,19.52
2022-08-08T15:22:29.467Z,19.58
2022-08-08T15:24:31.569Z,19.61
2022-08-08T15:26:29.721Z,19.65
2022-08-08T15:28:33.532Z,19.68
2022-08-08T15:30:29.977Z,19.73
2022-08-08T15:32:31.659Z,19.76
2022-08-08T15:34:32.166Z,19.78
2022-08-08T15:36:30.312Z,19.84
2022-08-08T15:38:30.407Z,19.88
2022-08-08T15:40:30.559Z,19.91
2022-08-08T15:42:31.685Z,19.88
2022-08-08T15:44:31.787Z,19.95
2022-08-08T15:46:34.795Z,19.98
2022-08-08T15:48:31.146Z,19.98
2022-08-08T15:50:31.188Z,20.03
2022-08-08T15:52:33.170Z,20.06
2022-08-08T15:54:38.822Z,20.11
2022-08-08T15:56:32.602Z,20.20
2022-08-08T15:58:31.912Z,20.26
2022-08-08T16:00:31.793Z,20.27
2022-08-08T16:02:32.318Z,20.34
2022-08-08T16:04:32.053Z,20.38
2022-08-08T16:06:32.146Z,20.41
2022-08-08T16:08:32.335Z,20.46
2022-08-08T16:13:09.239Z,20.52
2022-08-08T16:13:15.032Z,20.46
2022-08-08T16:14:33.889Z,20.60
2022-08-08T16:16:32.790Z,20.64
2022-08-08T16:18:33.080Z,20.67
2022-08-08T16:20:33.068Z,20.73
2022-08-08T16:22:33.191Z,20.79
2022-08-08T16:24:33.319Z,20.84
2022-08-08T16:26:35.335Z,20.90
2022-08-08T16:28:35.364Z,21.00
2022-08-08T16:30:36.693Z,21.06
2022-08-08T16:32:34.045Z,21.13
2022-08-08T16:34:34.052Z,21.20
2022-08-08T16:36:34.411Z,21.24
2022-08-08T16:38:34.333Z,21.33
2022-08-08T16:40:34.607Z,21.41
2022-08-08T16:42:34.940Z,21.52
2022-08-08T16:44:34.759Z,21.63
2022-08-08T16:46:36.386Z,21.73
2022-08-08T16:48:37.030Z,21.88
2022-08-08T16:50:35.170Z,21.95
2022-08-08T16:55:03.427Z,22.02
2022-08-08T16:55:05.270Z,22.12
2022-08-08T16:56:36.527Z,22.17
2022-08-08T16:58:36.674Z,22.25
2022-08-08T17:00:35.848Z,22.32
2022-08-08T17:02:44.555Z,22.38
2022-08-08T17:04:37.173Z,22.46
2022-08-08T17:06:43.818Z,22.52
2022-08-08T17:08:37.324Z,22.61
2022-08-08T17:10:36.495Z,22.67
2022-08-08T17:12:37.380Z,22.81
2022-08-08T17:14:36.779Z,22.88
2022-08-08T17:16:36.931Z,22.97
2022-08-08T17:18:37.043Z,23.09
2022-08-08T17:20:38.109Z,23.18
2022-08-08T17:22:39.109Z,23.29
2022-08-08T17:24:38.451Z,23.37
2022-08-08T17:26:37.585Z,23.49
2022-08-08T17:28:37.746Z,23.59
2022-08-08T17:30:37.871Z,23.67
2022-08-08T17:33:43.864Z,23.75
2022-08-08T17:34:54.738Z,23.89
2022-08-08T17:36:44.177Z,23.98
2022-08-08T17:38:39.451Z,24.08
2022-08-08T17:40:38.610Z,24.17
2022-08-08T17:42:38.711Z,24.27
2022-08-08T17:44:39.810Z,24.33
2022-08-08T17:46:39.939Z,24.43
2022-08-08T17:48:39.082Z,24.48
2022-08-08T17:50:39.229Z,24.58
2022-08-08T17:52:43.006Z,24.66
2022-08-08T17:54:39.474Z,24.75
2022-08-08T17:56:39.622Z,24.83
2022-08-08T17:58:39.762Z,24.92
2022-08-08T18:00:41.378Z,25.03
2022-08-08T18:02:40.106Z,25.13
2022-08-08T18:04:47.835Z,25.22
2022-08-08T18:06:43.091Z,25.31
2022-08-08T18:08:41.984Z,25.38
2022-08-08T18:10:40.607Z,25.46
2022-08-08T18:12:40.749Z,25.55
2022-08-08T18:14:40.895Z,25.65
2022-08-08T18:16:41.288Z,25.69
2022-08-08T18:18:45.148Z,25.76
2022-08-08T18:20:54.576Z,25.85
2022-08-08T18:22:50.915Z,25.95
2022-08-08T18:24:42.621Z,26.05
2022-08-08T18:26:42.684Z,26.12
2022-08-08T18:28:54.717Z,26.22
2022-08-08T18:30:43.019Z,26.28
2022-08-08T18:32:43.211Z,26.39
2022-08-08T18:34:42.599Z,26.49
2022-08-08T18:36:44.378Z,26.52
2022-08-08T18:38:42.498Z,26.64
2022-08-08T18:40:42.622Z,26.70
2022-08-08T18:42:45.607Z,26.76
2022-08-08T18:44:55.826Z,26.83
2022-08-08T18:46:55.465Z,26.92
2022-08-08T18:48:44.169Z,27.03
2022-08-08T18:50:50.067Z,27.11
2022-08-08T18:52:44.462Z,27.25
2022-08-08T18:54:44.553Z,27.32
2022-08-08T18:56:44.681Z,27.39
2022-08-08T18:58:43.832Z,27.54
2022-08-08T19:00:46.518Z,27.63
2022-08-08T19:02:54.757Z,27.66
2022-08-08T19:04:45.210Z,27.77
2022-08-08T19:06:47.014Z,27.97
2022-08-08T19:08:45.578Z,28.07
2022-08-08T19:10:44.621Z,28.21
2022-08-08T19:12:53.223Z,28.24
2022-08-08T19:14:45.997Z,28.30
2022-08-08T19:16:45.029Z,28.32
2022-08-08T19:18:51.812Z,28.38
2022-08-08T19:20:46.519Z,28.44
2022-08-08T19:22:45.273Z,28.53
2022-08-08T19:25:21.354Z,28.63
2022-08-08T19:26:50.992Z,28.64
2022-08-08T19:28:46.649Z,28.71
2022-08-08T19:30:51.422Z,28.70
2022-08-08T19:32:46.813Z,28.80
2022-08-08T19:34:45.912Z,28.81
2022-08-08T19:36:46.013Z,28.84
2022-08-08T19:38:46.441Z,28.95
2022-08-08T19:40:46.321Z,29.00
2022-08-08T19:42:46.376Z,29.05
2022-08-08T19:44:50.207Z,29.17
2022-08-08T19:46:46.697Z,29.21
2022-08-08T19:48:46.718Z,29.28
2022-08-08T19:50:46.982Z,29.39
2022-08-08T19:52:54.395Z,29.40
2022-08-08T19:54:51.201Z,29.40
2022-08-08T19:56:48.956Z,29.49
2022-08-08T19:58:51.891Z,29.58
2022-08-08T20:00:47.538Z,29.64
2022-08-08T20:02:50.463Z,29.69
2022-08-08T20:04:47.758Z,29.72
2022-08-08T20:06:47.890Z,29.75
2022-08-08T20:08:48.774Z,29.85
2022-08-08T20:10:48.198Z,29.90
2022-08-08T20:12:59.226Z,29.94
2022-08-08T20:14:51.647Z,30.12
2022-08-08T20:16:48.550Z,30.09
2022-08-08T20:18:52.763Z,30.16
2022-08-08T20:20:49.842Z,30.18
2022-08-08T20:22:53.820Z,30.23
2022-08-08T20:24:49.984Z,30.33
2022-08-08T20:26:49.541Z,30.37
2022-08-08T20:28:51.042Z,30.36
2022-08-08T20:30:55.893Z,30.40
2022-08-08T20:32:50.482Z,30.51
2022-08-08T20:34:53.550Z,30.54
2022-08-08T20:36:49.650Z,30.56
2022-08-08T20:38:50.443Z,30.57
2022-08-08T20:40:51.211Z,30.65
2022-08-08T20:42:49.987Z,30.67
2022-08-08T20:44:50.054Z,30.68
2022-08-08T20:46:50.188Z,30.74
2022-08-08T20:48:50.253Z,30.79
2022-08-08T20:50:50.676Z,30.95
2022-08-08T20:52:50.610Z,31.03
2022-08-08T20:54:50.714Z,31.07
2022-08-08T20:57:04.638Z,31.10
2022-08-08T20:58:51.836Z,31.10
2022-08-08T21:00:50.961Z,31.13
2022-08-08T21:02:52.793Z,31.15
2022-08-08T21:04:51.133Z,31.22
2022-08-08T21:06:52.789Z,31.29
2022-08-08T21:08:51.608Z,31.36
2022-08-08T21:10:53.602Z,31.35
2022-08-08T21:12:53.044Z,31.41
2022-08-08T21:14:51.690Z,31.43
2022-08-08T21:16:51.826Z,31.40
2022-08-08T21:18:51.953Z,31.41
2022-08-08T21:20:52.073Z,31.42
2022-08-08T21:22:52.233Z,31.47
2022-08-08T21:24:53.706Z,31.47
2022-08-08T21:26:52.430Z,31.50
2022-08-08T21:28:53.036Z,31.53
2022-08-08T21:30:52.738Z,31.57
2022-08-08T21:32:53.356Z,31.60
2022-08-08T21:34:56.516Z,31.64
2022-08-08T21:36:53.071Z,31.68
2022-08-08T21:38:53.186Z,31.73
2022-08-08T21:40:54.796Z,31.77
2022-08-08T21:42:53.501Z,31.83
2022-08-08T21:44:58.420Z,31.87
2022-08-08T21:48:03.820Z,31.97
2022-08-08T21:48:55.812Z,32.08
2022-08-08T21:50:53.891Z,32.17
2022-08-08T21:54:32.732Z,32.23
2022-08-08T21:55:03.234Z,32.34
2022-08-08T21:56:55.208Z,32.39
2022-08-08T21:58:55.484Z,32.43
2022-08-08T22:00:54.940Z,32.50
2022-08-08T22:02:54.573Z,32.59
2022-08-08T22:04:55.745Z,32.70
2022-08-08T22:06:54.871Z,32.76
2022-08-08T22:08:54.936Z,32.82
2022-08-08T22:10:55.061Z,32.92
2022-08-08T22:12:59.912Z,33.01
2022-08-08T22:14:56.315Z,33.09
2022-08-08T22:16:55.421Z,33.18
2022-08-08T22:18:55.559Z,33.27
2022-08-08T22:20:55.721Z,33.37
2022-08-08T22:22:55.792Z,33.49
2022-08-08T22:24:55.889Z,33.58
2022-08-08T22:27:02.314Z,33.70
2022-08-08T22:29:14.681Z,33.79
2022-08-08T22:30:57.218Z,33.88
2022-08-08T22:32:56.373Z,33.98
2022-08-08T22:34:56.440Z,34.09
2022-08-08T22:36:56.560Z,34.20
2022-08-08T22:38:56.655Z,34.33
2022-08-08T22:40:56.760Z,34.44
2022-08-08T22:42:56.904Z,34.53
2022-08-08T22:44:57.019Z,34.64
2022-08-08T22:46:57.183Z,34.75
2022-08-08T22:48:57.276Z,34.91
2022-08-08T22:50:57.381Z,35.07
2022-08-08T22:54:15.753Z,35.19
2022-08-08T22:55:05.191Z,35.33
2022-08-08T22:56:58.672Z,35.44
2022-08-08T22:58:57.820Z,35.54
2022-08-08T23:00:57.925Z,35.67
2022-08-08T23:02:58.085Z,35.76
2022-08-08T23:05:01.996Z,35.84
2022-08-08T23:07:02.600Z,35.94
2022-08-08T23:09:00.434Z,36.06
2022-08-08T23:11:06.217Z,36.21
2022-08-08T23:12:59.806Z,36.33
2022-08-08T23:15:10.586Z,36.41
2022-08-08T23:16:59.879Z,36.51
2022-08-08T23:19:00.068Z,36.57
2022-08-08T23:20:59.089Z,36.66
2022-08-08T23:22:59.201Z,36.73
2022-08-08T23:24:59.349Z,36.79
2022-08-08T23:26:59.432Z,36.86
2022-08-08T23:28:59.550Z,36.98
2022-08-08T23:30:59.690Z,37.07
2022-08-08T23:32:59.761Z,37.18
2022-08-08T23:34:59.868Z,37.23
2022-08-08T23:37:00.751Z,37.29
2022-08-08T23:39:00.083Z,37.37
2022-08-08T23:41:00.361Z,37.45
2022-08-08T23:43:04.220Z,37.53
2022-08-08T23:45:00.505Z,37.59
2022-08-08T23:49:04.179Z,37.63
2022-08-08T23:49:18.526Z,37.68
2022-08-08T23:51:01.911Z,37.77
2022-08-08T23:53:03.478Z,37.81
2022-08-08T23:55:13.987Z,37.85
2022-08-08T23:57:02.500Z,37.93
2022-08-08T23:59:02.616Z,37.96
